Terminal Aerodrome Forecast
Issued by NWS

Home | Current Version | Previous Version | Text Only | Print | Product List | Glossary On
Versions: 1 2 3 4 5 6 7 8 9 10 11 12 13 14
000
FTUS45 KABQ 051737
TAFGUP
TAF
KGUP 051737Z 0518/0618 26008KT P6SM FEW080 BKN140
     FM052200 26010KT P6SM VCTS SCT080CB BKN130
      TEMPO 0523/0602 VRB20G30KT 5SM TSRA BKN060CB
     FM060200 23008KT P6SM VCSH BKN080 OVC150
     FM060600 VRB05KT P6SM BKN090=

USA.gov is the U.S. government's official web portal to all federal, state and local government web resources and services.